createdAt,value
2022-12-04T00:01:09.292Z,90.56
2022-12-04T00:03:35.972Z,89.87
2022-12-04T00:06:14.215Z,90.13
2022-12-04T00:08:41.534Z,90.37
2022-12-04T00:11:09.919Z,90.21
2022-12-04T00:13:37.278Z,90.31
2022-12-04T00:16:06.043Z,90.53
2022-12-04T00:18:32.558Z,90.32
2022-12-04T00:20:59.026Z,90.24
2022-12-04T00:23:25.753Z,90.13
2022-12-04T00:25:53.362Z,90.63
2022-12-04T00:28:19.949Z,90.20
2022-12-04T00:30:46.461Z,90.14
2022-12-04T00:33:13.764Z,91.26
2022-12-04T00:35:40.847Z,91.18
2022-12-04T00:38:07.316Z,90.85
2022-12-04T00:40:33.887Z,91.12
2022-12-04T00:43:00.371Z,90.92
2022-12-04T00:45:26.875Z,91.10
2022-12-04T00:47:53.357Z,91.02
2022-12-04T00:50:19.872Z,90.12
2022-12-04T00:52:46.450Z,89.24
2022-12-04T00:55:13.227Z,90.23
2022-12-04T00:57:39.693Z,90.04
2022-12-04T01:00:07.303Z,90.85
2022-12-04T01:02:33.893Z,90.56
2022-12-04T01:05:01.713Z,90.17
2022-12-04T01:07:28.433Z,90.66
2022-12-04T01:09:55.002Z,91.03
2022-12-04T01:12:21.638Z,91.17
2022-12-04T01:14:48.105Z,90.81
2022-12-04T01:17:14.503Z,91.14
2022-12-04T01:19:40.936Z,91.07
2022-12-04T01:22:07.404Z,90.92
2022-12-04T01:24:33.875Z,90.36
2022-12-04T01:27:00.323Z,90.33
2022-12-04T01:29:27.006Z,90.70
2022-12-04T01:31:53.501Z,90.93
2022-12-04T01:34:19.937Z,90.80
2022-12-04T01:36:46.477Z,91.41
2022-12-04T01:39:12.928Z,90.29
2022-12-04T01:41:40.476Z,90.33
2022-12-04T01:44:15.178Z,89.50
2022-12-04T01:46:43.444Z,90.24
2022-12-04T01:49:14.583Z,91.09
2022-12-04T01:51:45.858Z,90.49
2022-12-04T01:54:18.625Z,90.67
2022-12-04T01:56:58.273Z,90.73
2022-12-04T01:59:31.934Z,91.17
2022-12-04T02:02:11.223Z,90.49
2022-12-04T02:04:39.914Z,90.44
2022-12-04T02:07:06.810Z,90.27
2022-12-04T02:09:34.761Z,90.78
2022-12-04T02:12:13.289Z,90.97
2022-12-04T02:14:49.928Z,90.42
2022-12-04T02:17:44.115Z,90.72
2022-12-04T02:20:44.648Z,90.87
2022-12-04T02:23:16.990Z,90.69
2022-12-04T02:26:09.792Z,90.45
2022-12-04T02:28:36.221Z,89.63
2022-12-04T02:31:07.113Z,90.23
2022-12-04T02:33:48.287Z,90.07
2022-12-04T02:36:21.294Z,90.61
2022-12-04T02:39:12.515Z,91.69
2022-12-04T02:41:54.590Z,90.56
2022-12-04T02:44:25.122Z,90.52
2022-12-04T02:46:58.131Z,91.62
2022-12-04T02:49:37.672Z,90.79
2022-12-04T02:52:08.598Z,90.79
2022-12-04T02:54:39.492Z,90.32
2022-12-04T02:57:09.718Z,90.68
2022-12-04T02:59:40.538Z,90.45
2022-12-04T03:02:21.976Z,90.36
2022-12-04T03:04:50.945Z,90.28
2022-12-04T03:07:30.637Z,91.02
2022-12-04T03:10:05.882Z,90.49
2022-12-04T03:12:41.741Z,90.40
2022-12-04T03:15:35.497Z,91.55
2022-12-04T03:18:14.535Z,90.35
2022-12-04T03:20:44.558Z,90.86
2022-12-04T03:23:22.763Z,91.82
2022-12-04T03:26:21.568Z,91.46
2022-12-04T03:29:06.610Z,91.89
2022-12-04T03:31:55.730Z,92.82
2022-12-04T03:34:39.723Z,92.13
2022-12-04T03:37:15.998Z,91.94
2022-12-04T03:39:42.375Z,92.69
2022-12-04T03:42:18.700Z,92.52
2022-12-04T03:45:04.246Z,92.78
2022-12-04T03:47:47.665Z,91.85
2022-12-04T03:50:30.169Z,91.62
2022-12-04T03:53:30.581Z,91.92
2022-12-04T03:56:19.113Z,91.18
2022-12-04T03:58:50.752Z,91.42
2022-12-04T04:01:23.079Z,92.01
2022-12-04T04:03:53.531Z,92.20
2022-12-04T04:06:28.725Z,91.99
2022-12-04T04:08:59.124Z,91.43
2022-12-04T04:11:34.027Z,91.56
2022-12-04T04:14:27.123Z,91.40
2022-12-04T04:17:26.690Z,91.63
2022-12-04T04:20:21.570Z,91.38
2022-12-04T04:23:09.617Z,91.22
2022-12-04T04:25:40.395Z,91.55
2022-12-04T04:28:34.232Z,92.17
2022-12-04T04:31:19.293Z,90.79
2022-12-04T04:33:59.319Z,91.34
2022-12-04T04:36:44.065Z,92.19
2022-12-04T04:39:22.571Z,91.38
2022-12-04T04:42:04.509Z,92.54
2022-12-04T04:44:39.320Z,92.87
2022-12-04T04:47:09.285Z,92.61
2022-12-04T04:49:38.579Z,92.77
2022-12-04T04:52:05.303Z,92.27
2022-12-04T04:54:33.845Z,91.67
2022-12-04T04:57:00.381Z,92.21
2022-12-04T04:59:27.066Z,93.01
2022-12-04T05:01:53.753Z,93.36
2022-12-04T05:04:20.262Z,92.96
2022-12-04T05:06:47.806Z,93.46
2022-12-04T05:09:14.476Z,92.46
2022-12-04T05:11:40.874Z,92.32
2022-12-04T05:14:09.259Z,93.29
2022-12-04T05:16:35.907Z,93.66
2022-12-04T05:19:20.851Z,92.85
2022-12-04T05:21:47.252Z,92.96
2022-12-04T05:24:13.681Z,92.50
2022-12-04T05:26:40.132Z,92.51
2022-12-04T05:29:06.786Z,92.86
2022-12-04T05:31:33.322Z,93.38
2022-12-04T05:33:59.787Z,92.56
2022-12-04T05:36:26.330Z,92.13
2022-12-04T05:38:52.839Z,91.78
2022-12-04T05:41:19.294Z,92.27
2022-12-04T05:43:45.793Z,91.77
2022-12-04T05:46:12.304Z,91.53
2022-12-04T05:48:38.813Z,91.87
2022-12-04T05:51:10.544Z,91.74
2022-12-04T05:53:37.463Z,91.30
2022-12-04T05:56:04.983Z,90.89
2022-12-04T05:58:35.145Z,90.96
2022-12-04T06:01:08.386Z,90.62
2022-12-04T06:03:34.974Z,90.38
2022-12-04T06:06:01.440Z,90.81
2022-12-04T06:08:27.838Z,91.24
2022-12-04T06:10:54.266Z,91.27
2022-12-04T06:13:20.706Z,90.97
2022-12-04T06:15:47.154Z,90.37
2022-12-04T06:18:13.555Z,90.37
2022-12-04T06:20:39.993Z,91.36
2022-12-04T06:23:06.520Z,91.76
2022-12-04T06:25:34.418Z,91.72
2022-12-04T06:28:00.843Z,91.14
2022-12-04T06:30:27.355Z,90.72
2022-12-04T06:32:53.774Z,91.27
2022-12-04T06:35:20.235Z,92.82
2022-12-04T06:37:46.687Z,91.84
2022-12-04T06:40:13.261Z,91.35
2022-12-04T06:42:39.732Z,90.25
2022-12-04T06:45:06.856Z,91.56
2022-12-04T06:47:34.995Z,91.96
2022-12-04T06:50:01.498Z,91.99
2022-12-04T06:52:27.911Z,90.91
2022-12-04T06:54:54.474Z,91.21
2022-12-04T06:57:20.867Z,90.38
2022-12-04T06:59:47.307Z,90.44
2022-12-04T07:02:13.809Z,91.18
2022-12-04T07:04:40.341Z,91.45
2022-12-04T07:07:09.901Z,91.24
2022-12-04T07:09:36.745Z,91.77
2022-12-04T07:12:03.222Z,91.41
2022-12-04T07:14:29.698Z,90.58
2022-12-04T07:16:56.198Z,90.68
2022-12-04T07:19:22.729Z,90.42
2022-12-04T07:21:49.142Z,91.15
2022-12-04T07:24:17.275Z,91.48
2022-12-04T07:26:44.378Z,90.97
2022-12-04T07:29:10.911Z,91.07
2022-12-04T07:31:37.893Z,91.57
2022-12-04T07:34:04.401Z,91.30
2022-12-04T07:36:30.794Z,90.40
2022-12-04T07:38:57.821Z,90.92
2022-12-04T07:41:25.165Z,90.73
2022-12-04T07:43:51.567Z,90.45
2022-12-04T07:46:22.418Z,91.27
2022-12-04T07:48:48.905Z,91.23
2022-12-04T07:51:27.515Z,90.27
2022-12-04T07:53:54.888Z,90.58
2022-12-04T07:56:22.009Z,91.06
2022-12-04T07:58:48.570Z,89.81
2022-12-04T08:01:23.132Z,91.18
2022-12-04T08:03:52.716Z,90.18
2022-12-04T08:06:22.130Z,90.75
2022-12-04T08:08:49.223Z,89.45
2022-12-04T08:11:18.683Z,89.36
2022-12-04T08:13:45.920Z,89.34
2022-12-04T08:16:14.018Z,89.07
2022-12-04T08:18:41.694Z,90.04
2022-12-04T08:21:13.881Z,90.35
2022-12-04T08:23:42.551Z,89.41
2022-12-04T08:26:10.232Z,89.03
2022-12-04T08:28:37.296Z,89.24
2022-12-04T08:31:04.724Z,88.17
2022-12-04T08:33:31.964Z,88.75
2022-12-04T08:36:00.243Z,89.80
2022-12-04T08:38:26.774Z,89.91
2022-12-04T08:40:53.225Z,89.08
2022-12-04T08:43:19.677Z,89.75
2022-12-04T08:45:55.218Z,90.26
2022-12-04T08:48:21.953Z,89.77
2022-12-04T08:50:48.400Z,90.06
2022-12-04T08:53:14.910Z,89.68
2022-12-04T08:55:41.406Z,90.39
2022-12-04T08:58:07.869Z,90.81
2022-12-04T09:00:34.380Z,90.40
2022-12-04T09:03:00.825Z,89.11
2022-12-04T09:05:27.256Z,88.74
2022-12-04T09:07:53.742Z,89.63
2022-12-04T09:10:20.264Z,89.20
2022-12-04T09:12:46.735Z,88.70
2022-12-04T09:15:13.205Z,88.90
2022-12-04T09:17:39.689Z,89.64
2022-12-04T09:20:08.116Z,89.51
2022-12-04T09:22:57.874Z,88.38
2022-12-04T09:25:22.329Z,88.55
2022-12-04T09:27:48.737Z,88.67
2022-12-04T09:30:15.213Z,89.10
2022-12-04T09:32:41.721Z,88.60
2022-12-04T09:35:08.581Z,88.11
2022-12-04T09:37:36.678Z,88.12
2022-12-04T09:40:07.950Z,90.42
2022-12-04T09:42:45.845Z,91.51
2022-12-04T09:45:15.940Z,91.29
2022-12-04T09:47:55.664Z,91.22
2022-12-04T09:50:42.723Z,91.87
2022-12-04T09:53:14.133Z,91.22
2022-12-04T09:55:43.899Z,91.34
2022-12-04T09:58:14.562Z,91.94
2022-12-04T10:00:44.180Z,91.03
2022-12-04T10:03:17.274Z,90.71
2022-12-04T10:06:10.023Z,91.37
2022-12-04T10:08:39.697Z,91.33
2022-12-04T10:11:46.072Z,90.35
2022-12-04T10:14:35.555Z,90.20
2022-12-04T10:17:23.998Z,91.64
2022-12-04T10:20:04.070Z,91.62
2022-12-04T10:22:40.116Z,91.19
2022-12-04T10:25:15.321Z,92.68
2022-12-04T10:28:20.738Z,92.15
2022-12-04T10:30:48.525Z,94.15
2022-12-04T10:33:21.239Z,94.01
2022-12-04T10:35:52.550Z,94.17
2022-12-04T10:38:43.927Z,94.47
2022-12-04T10:41:15.243Z,94.66
2022-12-04T10:43:44.166Z,95.92
2022-12-04T10:46:30.537Z,96.52
2022-12-04T10:49:03.404Z,97.10
2022-12-04T10:51:38.330Z,98.58
2022-12-04T10:54:21.962Z,98.62
2022-12-04T10:56:58.704Z,97.73
2022-12-04T10:59:25.988Z,98.51
2022-12-04T11:02:06.380Z,99.91
2022-12-04T11:04:34.318Z,99.62
2022-12-04T11:07:07.463Z,100.00
2022-12-04T11:09:34.397Z,99.98
2022-12-04T11:12:19.433Z,100.00
2022-12-04T11:14:47.430Z,100.00
2022-12-04T11:17:19.486Z,100.00
2022-12-04T11:19:45.963Z,100.00
2022-12-04T11:22:14.143Z,100.00
2022-12-04T11:24:42.786Z,100.00
2022-12-04T11:27:23.687Z,100.00
2022-12-04T11:29:51.037Z,100.00
2022-12-04T11:32:24.975Z,100.00
2022-12-04T11:34:54.039Z,100.00
2022-12-04T11:37:27.924Z,100.00
2022-12-04T11:39:55.576Z,100.00
2022-12-04T11:42:28.462Z,100.00
2022-12-04T11:45:00.653Z,100.00
2022-12-04T11:47:32.941Z,100.00
2022-12-04T11:50:11.331Z,100.00
2022-12-04T11:52:56.362Z,100.00
2022-12-04T11:55:34.367Z,100.00
2022-12-04T11:58:39.949Z,100.00
2022-12-04T12:01:56.511Z,100.00
2022-12-04T12:04:40.047Z,100.00
2022-12-04T12:07:44.461Z,100.00
2022-12-04T12:10:11.000Z,100.00
2022-12-04T12:13:07.393Z,100.00
2022-12-04T12:15:51.942Z,100.00
2022-12-04T12:18:37.060Z,100.00
2022-12-04T12:21:34.780Z,100.00
2022-12-04T12:24:15.913Z,100.00
2022-12-04T12:26:48.091Z,100.00
2022-12-04T12:29:23.650Z,100.00
2022-12-04T12:32:02.399Z,100.00
2022-12-04T12:34:34.682Z,100.00
2022-12-04T12:37:10.966Z,100.00
2022-12-04T12:39:47.694Z,100.00
2022-12-04T12:42:23.793Z,100.00
2022-12-04T12:45:24.924Z,100.00
2022-12-04T12:47:54.109Z,100.00
2022-12-04T12:50:38.377Z,100.00
2022-12-04T12:53:13.353Z,100.00
2022-12-04T12:55:45.920Z,100.00
2022-12-04T12:58:17.650Z,100.00
2022-12-04T13:00:51.243Z,100.00
2022-12-04T13:03:29.729Z,100.00
2022-12-04T13:06:03.629Z,100.00
2022-12-04T13:08:36.552Z,100.00
2022-12-04T13:11:14.499Z,100.00
2022-12-04T13:13:53.096Z,100.00
2022-12-04T13:16:24.547Z,100.00
2022-12-04T13:19:28.471Z,100.00
2022-12-04T13:22:24.362Z,100.00
2022-12-04T13:25:04.082Z,100.00
2022-12-04T13:28:08.029Z,100.00
2022-12-04T13:30:49.038Z,100.00
2022-12-04T13:33:24.660Z,100.00
2022-12-04T13:35:54.102Z,100.00
2022-12-04T13:38:36.428Z,100.00
2022-12-04T13:41:05.960Z,100.00
2022-12-04T13:43:42.251Z,100.00
2022-12-04T13:46:29.064Z,100.00
2022-12-04T13:49:07.745Z,100.00
2022-12-04T13:51:41.022Z,100.00
2022-12-04T13:54:13.544Z,100.00
2022-12-04T13:56:41.580Z,100.00
2022-12-04T13:59:26.599Z,100.00
2022-12-04T14:02:02.234Z,100.00
2022-12-04T14:04:46.105Z,100.00
2022-12-04T14:07:29.220Z,100.00
2022-12-04T14:09:57.845Z,100.00
2022-12-04T14:12:33.763Z,100.00
2022-12-04T14:15:03.965Z,100.00
2022-12-04T14:17:34.844Z,100.00
2022-12-04T14:20:08.009Z,100.00
2022-12-04T14:22:34.752Z,100.00
2022-12-04T14:25:13.203Z,100.00
2022-12-04T14:27:42.799Z,100.00
2022-12-04T14:30:23.491Z,100.00
2022-12-04T14:32:53.871Z,100.00
2022-12-04T14:35:24.357Z,100.00
2022-12-04T14:38:00.156Z,100.00
2022-12-04T14:40:43.502Z,100.00
2022-12-04T14:43:25.571Z,100.00
2022-12-04T14:46:03.670Z,100.00
2022-12-04T14:49:03.997Z,100.00
2022-12-04T14:51:34.100Z,100.00
2022-12-04T14:54:28.433Z,100.00
2022-12-04T14:57:06.597Z,100.00
2022-12-04T14:59:45.256Z,100.00
2022-12-04T15:02:16.942Z,100.00
2022-12-04T15:04:46.293Z,100.00
2022-12-04T15:07:21.531Z,100.00
2022-12-04T15:10:14.407Z,100.00
2022-12-04T15:12:54.636Z,100.00
2022-12-04T15:15:25.824Z,100.00
2022-12-04T15:18:02.237Z,100.00
2022-12-04T15:20:42.806Z,100.00
2022-12-04T15:23:14.689Z,100.00
2022-12-04T15:25:45.741Z,100.00
2022-12-04T15:28:26.007Z,100.00
2022-12-04T15:30:55.230Z,100.00
2022-12-04T15:33:26.882Z,100.00
2022-12-04T15:35:57.958Z,100.00
2022-12-04T15:38:24.528Z,100.00
2022-12-04T15:40:57.190Z,100.00
2022-12-04T15:43:31.998Z,100.00
2022-12-04T15:45:58.966Z,100.00
2022-12-04T15:48:28.014Z,100.00
2022-12-04T15:51:06.064Z,100.00
2022-12-04T15:53:37.184Z,100.00
2022-12-04T15:56:10.024Z,100.00
2022-12-04T15:58:39.236Z,100.00
2022-12-04T16:01:10.801Z,100.00
2022-12-04T16:03:44.225Z,100.00
2022-12-04T16:06:29.243Z,100.00
2022-12-04T16:09:01.143Z,100.00
2022-12-04T16:11:37.029Z,100.00
2022-12-04T16:14:08.095Z,100.00
2022-12-04T16:16:36.306Z,100.00
2022-12-04T16:19:27.700Z,100.00
2022-12-04T16:21:54.237Z,100.00
2022-12-04T16:24:21.691Z,100.00
2022-12-04T16:26:52.867Z,100.00
2022-12-04T16:29:19.289Z,100.00
2022-12-04T16:31:46.165Z,100.00
2022-12-04T16:34:14.174Z,100.00
2022-12-04T16:36:41.423Z,100.00
2022-12-04T16:39:08.075Z,100.00
2022-12-04T16:41:34.618Z,100.00
2022-12-04T16:44:01.883Z,100.00
2022-12-04T16:46:29.785Z,100.00
2022-12-04T16:48:56.546Z,100.00
2022-12-04T16:51:26.757Z,100.00
2022-12-04T16:53:54.339Z,100.00
2022-12-04T16:56:21.616Z,100.00
2022-12-04T16:58:48.336Z,100.00
2022-12-04T17:01:22.524Z,100.00
2022-12-04T17:03:49.696Z,100.00
2022-12-04T17:06:16.806Z,100.00
2022-12-04T17:08:43.448Z,100.00
2022-12-04T17:11:15.124Z,100.00
2022-12-04T17:13:42.199Z,100.00
2022-12-04T17:16:11.964Z,100.00
2022-12-04T17:18:40.642Z,100.00
2022-12-04T17:21:08.930Z,100.00
2022-12-04T17:23:35.600Z,100.00
2022-12-04T17:26:04.184Z,100.00
2022-12-04T17:28:31.446Z,100.00
2022-12-04T17:30:58.494Z,100.00
2022-12-04T17:33:25.969Z,100.00
2022-12-04T17:35:54.094Z,100.00
2022-12-04T17:38:20.735Z,100.00
2022-12-04T17:41:01.046Z,100.00
2022-12-04T17:43:32.449Z,100.00
2022-12-04T17:45:59.589Z,100.00
2022-12-04T17:48:27.465Z,100.00
2022-12-04T17:51:21.336Z,100.00
2022-12-04T17:53:48.264Z,100.00
2022-12-04T17:56:17.949Z,100.00
2022-12-04T17:58:45.156Z,100.00
2022-12-04T18:01:16.200Z,100.00
2022-12-04T18:03:43.874Z,100.00
2022-12-04T18:06:18.596Z,100.00
2022-12-04T18:08:49.781Z,100.00
2022-12-04T18:11:18.650Z,100.00
2022-12-04T18:13:45.045Z,100.00
2022-12-04T18:16:11.735Z,100.00
2022-12-04T18:18:38.894Z,100.00
2022-12-04T18:21:07.818Z,100.00
2022-12-04T18:23:34.340Z,100.00
2022-12-04T18:26:01.147Z,100.00
2022-12-04T18:28:30.761Z,100.00
2022-12-04T18:31:05.475Z,100.00
2022-12-04T18:33:34.342Z,100.00
2022-12-04T18:36:01.529Z,100.00
2022-12-04T18:38:30.590Z,100.00
2022-12-04T18:41:02.841Z,100.00
2022-12-04T18:43:29.588Z,100.00
2022-12-04T18:46:06.831Z,100.00
2022-12-04T18:48:34.722Z,100.00
2022-12-04T18:51:01.174Z,100.00
2022-12-04T18:53:27.648Z,100.00
2022-12-04T18:55:54.433Z,100.00
2022-12-04T18:58:22.894Z,100.00
2022-12-04T19:00:49.611Z,100.00
2022-12-04T19:03:16.137Z,100.00
2022-12-04T19:05:50.096Z,100.00
2022-12-04T19:08:17.718Z,100.00
2022-12-04T19:10:44.252Z,100.00
2022-12-04T19:13:10.662Z,100.00
2022-12-04T19:15:42.993Z,100.00
2022-12-04T19:18:09.483Z,100.00
2022-12-04T19:20:39.968Z,100.00
2022-12-04T19:23:06.394Z,100.00
2022-12-04T19:25:32.785Z,100.00
2022-12-04T19:27:59.992Z,100.00
2022-12-04T19:30:26.523Z,100.00
2022-12-04T19:32:52.970Z,100.00
2022-12-04T19:35:19.416Z,100.00
2022-12-04T19:37:51.131Z,100.00
2022-12-04T19:40:19.225Z,100.00
2022-12-04T19:42:45.701Z,100.00
2022-12-04T19:45:12.254Z,100.00
2022-12-04T19:47:38.750Z,100.00
2022-12-04T19:50:05.762Z,100.00
2022-12-04T19:52:33.556Z,100.00
2022-12-04T19:55:00.018Z,100.00
2022-12-04T19:57:26.508Z,100.00
2022-12-04T19:59:52.959Z,100.00
2022-12-04T20:02:19.790Z,100.00
2022-12-04T20:04:46.376Z,100.00
2022-12-04T20:07:13.046Z,100.00
2022-12-04T20:09:40.040Z,100.00
2022-12-04T20:12:06.769Z,100.00
2022-12-04T20:14:33.305Z,100.00
2022-12-04T20:17:01.621Z,100.00
2022-12-04T20:19:28.590Z,100.00
2022-12-04T20:21:59.325Z,100.00
2022-12-04T20:24:26.488Z,100.00
2022-12-04T20:26:52.926Z,100.00
2022-12-04T20:29:19.464Z,100.00
2022-12-04T20:31:46.681Z,100.00
2022-12-04T20:34:15.744Z,100.00
2022-12-04T20:36:44.555Z,100.00
2022-12-04T20:39:13.013Z,100.00
2022-12-04T20:41:40.409Z,100.00
2022-12-04T20:44:09.514Z,100.00
2022-12-04T20:46:38.178Z,100.00
2022-12-04T20:49:07.706Z,100.00
2022-12-04T20:51:42.068Z,100.00
2022-12-04T20:54:10.957Z,100.00
2022-12-04T20:56:38.427Z,100.00
2022-12-04T20:59:10.727Z,100.00
2022-12-04T21:01:37.585Z,100.00
2022-12-04T21:04:04.497Z,100.00
2022-12-04T21:06:37.655Z,100.00
2022-12-04T21:09:06.235Z,100.00
2022-12-04T21:11:39.271Z,100.00
2022-12-04T21:14:30.606Z,100.00
2022-12-04T21:16:57.462Z,100.00
2022-12-04T21:19:24.107Z,100.00
2022-12-04T21:21:50.855Z,100.00
2022-12-04T21:24:19.821Z,100.00
2022-12-04T21:26:47.115Z,100.00
2022-12-04T21:29:14.997Z,100.00
2022-12-04T21:31:41.644Z,100.00
2022-12-04T21:34:11.560Z,100.00
2022-12-04T21:36:38.037Z,100.00
2022-12-04T21:39:04.752Z,100.00
2022-12-04T21:41:49.547Z,100.00
2022-12-04T21:44:18.366Z,100.00
2022-12-04T21:46:46.188Z,100.00
2022-12-04T21:49:13.732Z,100.00
2022-12-04T21:51:56.847Z,100.00
2022-12-04T21:54:24.394Z,100.00
2022-12-04T21:56:50.810Z,100.00
2022-12-04T21:59:17.244Z,100.00
2022-12-04T22:01:43.772Z,100.00
2022-12-04T22:04:10.393Z,100.00
2022-12-04T22:06:37.914Z,100.00
2022-12-04T22:09:07.894Z,100.00
2022-12-04T22:11:34.890Z,100.00
2022-12-04T22:14:01.420Z,100.00
2022-12-04T22:16:30.680Z,100.00
2022-12-04T22:18:58.777Z,100.00
2022-12-04T22:21:26.369Z,100.00
2022-12-04T22:23:57.132Z,100.00
2022-12-04T22:26:24.319Z,100.00
2022-12-04T22:28:50.890Z,100.00
2022-12-04T22:31:20.588Z,100.00
2022-12-04T22:33:48.699Z,100.00
2022-12-04T22:36:18.630Z,100.00
2022-12-04T22:39:08.328Z,100.00
2022-12-04T22:41:32.123Z,100.00
2022-12-04T22:43:58.571Z,100.00
2022-12-04T22:46:25.079Z,100.00
2022-12-04T22:48:51.746Z,100.00
2022-12-04T22:51:21.149Z,100.00
2022-12-04T22:53:53.150Z,100.00
2022-12-04T22:56:28.497Z,100.00
2022-12-04T22:58:55.789Z,100.00
2022-12-04T23:01:26.163Z,100.00
2022-12-04T23:03:53.646Z,100.00
2022-12-04T23:06:21.614Z,100.00
2022-12-04T23:08:48.460Z,100.00
2022-12-04T23:11:20.233Z,100.00
2022-12-04T23:13:54.711Z,100.00
2022-12-04T23:16:22.595Z,100.00
2022-12-04T23:18:49.708Z,100.00
2022-12-04T23:21:17.440Z,100.00
2022-12-04T23:23:45.507Z,100.00
2022-12-04T23:26:15.094Z,100.00
2022-12-04T23:28:42.008Z,100.00
2022-12-04T23:31:08.937Z,100.00
2022-12-04T23:33:35.437Z,100.00
2022-12-04T23:36:03.687Z,100.00
2022-12-04T23:38:30.122Z,100.00
2022-12-04T23:41:16.378Z,100.00
2022-12-04T23:43:43.839Z,100.00
2022-12-04T23:46:12.675Z,100.00
2022-12-04T23:48:40.486Z,100.00
2022-12-04T23:51:07.987Z,100.00
2022-12-04T23:53:34.971Z,100.00
2022-12-04T23:56:15.140Z,100.00
2022-12-04T23:58:43.261Z,100.00
